Time;durP1;ratioP1;P1;durP2;ratioP2;P2;SDS_P1;SDS_P2;PMS_P1;PMS_P2;Temp;Humidity;BMP_temperature;BMP_pressure;BME280_temperature;BME280_humidity;BME280_pressure;Samples;Min_cycle;Max_cycle;Signal;HPM_P1;HPM_P2
2023/01/25 00:02:05;;;;;;;48.08;22.85;;;;;;;-0.11;100.00;103475.22;5044646;28;20032;-74
2023/01/25 00:04:30;;;;;;;47.38;24.20;;;;;;;-0.14;100.00;103480.06;5044340;28;20045;-74
2023/01/25 00:06:56;;;;;;;51.80;25.13;;;;;;;-0.11;100.00;103482.06;5042691;28;20037;-74
2023/01/25 00:09:22;;;;;;;47.78;23.52;;;;;;;-0.08;100.00;103474.59;5043914;28;20115;-74
2023/01/25 00:11:48;;;;;;;51.80;23.27;;;;;;;-0.05;100.00;103470.66;5040273;28;20048;-73
2023/01/25 00:14:14;;;;;;;51.33;23.38;;;;;;;-0.04;100.00;103467.31;5055770;28;20021;-74
2023/01/25 00:16:40;;;;;;;50.03;25.02;;;;;;;-0.04;100.00;103467.31;5040396;28;20029;-74
2023/01/25 00:19:06;;;;;;;55.70;25.17;;;;;;;-0.03;100.00;103460.47;5047675;28;20043;-74
2023/01/25 00:21:33;;;;;;;51.05;24.63;;;;;;;-0.04;100.00;103456.97;5049264;28;20028;-73
2023/01/25 00:23:58;;;;;;;54.03;23.52;;;;;;;-0.09;100.00;103458.16;5040222;28;20032;-74
2023/01/25 00:26:23;;;;;;;48.92;22.67;;;;;;;-0.10;100.00;103450.25;5040548;28;20051;-74
2023/01/25 00:28:53;;;;;;;48.78;23.42;;;;;;;-0.12;100.00;103444.91;5055918;28;20037;-74
2023/01/25 00:31:33;;;;;;;46.58;23.85;;;;;;;-0.10;100.00;103438.22;5056322;28;20080;-74
2023/01/25 00:34:23;;;;;;;50.92;24.83;;;;;;;-0.07;100.00;103432.44;5042006;28;20033;-74
2023/01/25 00:37:18;;;;;;;53.13;24.08;;;;;;;-0.09;100.00;103434.88;5042145;28;20028;-75
2023/01/25 00:39:44;;;;;;;48.55;22.73;;;;;;;-0.21;100.00;103434.53;5042088;28;20037;-74
2023/01/25 00:42:10;;;;;;;54.05;23.02;;;;;;;-0.12;100.00;103434.56;5043876;28;20791;-74
2023/01/25 00:44:36;;;;;;;51.42;23.58;;;;;;;-0.10;100.00;103434.72;5036964;28;20075;-74
2023/01/25 00:47:01;;;;;;;49.38;23.92;;;;;;;-0.09;100.00;103437.47;5043379;28;20040;-73
2023/01/25 00:49:29;;;;;;;57.08;25.08;;;;;;;-0.11;100.00;103433.81;5043149;28;20025;-74
2023/01/25 00:51:55;;;;;;;48.83;24.48;;;;;;;-0.15;100.00;103431.66;5042409;28;20432;-75
2023/01/25 00:54:21;;;;;;;50.53;23.67;;;;;;;-0.10;100.00;103426.97;5042068;28;20032;-74
2023/01/25 00:56:47;;;;;;;50.72;24.80;;;;;;;-0.10;100.00;103429.53;5046863;28;20035;-75
2023/01/25 00:59:13;;;;;;;49.17;24.08;;;;;;;-0.14;100.00;103428.31;5040367;28;20021;-74
2023/01/25 01:01:41;;;;;;;46.30;23.70;;;;;;;-0.14;100.00;103433.47;5040920;28;20128;-73
2023/01/25 01:04:07;;;;;;;51.03;23.90;;;;;;;-0.09;100.00;103427.09;5007269;28;1097047;-74
2023/01/25 01:06:37;;;;;;;48.25;23.50;;;;;;;-0.07;100.00;103423.03;5041967;28;20109;-74
2023/01/25 01:09:04;;;;;;;51.97;24.95;;;;;;;-0.08;100.00;103423.78;5044380;28;20424;-74
2023/01/25 01:11:30;;;;;;;48.28;23.83;;;;;;;-0.10;100.00;103427.84;5039974;28;20029;-75
2023/01/25 01:13:56;;;;;;;52.50;24.25;;;;;;;-0.17;100.00;103418.56;5044158;28;20564;-73
2023/01/25 01:16:22;;;;;;;52.88;24.75;;;;;;;-0.16;100.00;103419.50;5048020;28;20059;-74
2023/01/25 01:18:47;;;;;;;53.47;26.00;;;;;;;-0.18;100.00;103421.94;5043012;28;20053;-74
2023/01/25 01:21:13;;;;;;;55.20;24.95;;;;;;;-0.19;100.00;103425.25;5042010;28;20536;-74
2023/01/25 01:23:39;;;;;;;47.03;24.45;;;;;;;-0.18;100.00;103424.50;5040254;28;20457;-75
2023/01/25 01:26:07;;;;;;;51.30;24.15;;;;;;;-0.19;100.00;103419.16;5040818;28;20449;-74
2023/01/25 01:28:34;;;;;;;54.25;25.02;;;;;;;-0.20;100.00;103419.94;5041448;28;20039;-74
2023/01/25 01:31:06;;;;;;;55.60;24.98;;;;;;;-0.31;100.00;103423.09;5043163;28;20032;-73
2023/01/25 01:33:31;;;;;;;51.15;22.80;;;;;;;-0.24;100.00;103420.38;5043585;28;20017;-74
2023/01/25 01:36:06;;;;;;;51.28;24.00;;;;;;;-0.16;100.00;103414.31;5052301;28;20374;-73
2023/01/25 01:38:31;;;;;;;50.75;24.30;;;;;;;-0.25;100.00;103416.88;5039695;28;20099;-74
2023/01/25 01:40:57;;;;;;;53.17;25.42;;;;;;;-0.24;100.00;103420.38;5030895;28;20035;-74
2023/01/25 01:43:23;;;;;;;49.80;24.70;;;;;;;-0.22;100.00;103418.84;5043320;28;20091;-75
2023/01/25 01:45:53;;;;;;;49.83;23.80;;;;;;;-0.25;100.00;103415.97;5039293;28;20469;-74
2023/01/25 01:48:32;;;;;;;52.13;24.30;;;;;;;-0.21;100.00;103419.00;5039940;28;20513;-74
2023/01/25 01:51:17;;;;;;;51.38;24.35;;;;;;;-0.23;100.00;103417.00;5046409;28;20024;-74
2023/01/25 01:54:16;;;;;;;52.17;25.00;;;;;;;-0.28;100.00;103419.16;5036281;28;20038;-74
2023/01/25 01:56:51;;;;;;;55.53;24.50;;;;;;;-0.29;100.00;103419.91;5047247;28;20298;-75
2023/01/25 01:59:18;;;;;;;46.85;23.90;;;;;;;-0.34;100.00;103418.50;5041010;28;20029;-74
2023/01/25 02:01:43;;;;;;;56.42;24.48;;;;;;;-0.36;100.00;103420.94;5044233;28;20025;-74
2023/01/25 02:04:10;;;;;;;51.63;24.05;;;;;;;-0.37;100.00;103413.03;5044729;28;20785;-74
2023/01/25 02:06:59;;;;;;;53.45;24.05;;;;;;;-0.33;100.00;103417.75;5029415;28;20025;-73
2023/01/25 02:09:28;;;;;;;51.05;23.92;;;;;;;-0.33;100.00;103410.00;5040253;28;20040;-74
2023/01/25 02:11:55;;;;;;;48.85;22.83;;;;;;;-0.29;100.00;103412.13;5045985;28;20067;-74
2023/01/25 02:14:22;;;;;;;49.72;24.33;;;;;;;-0.27;100.00;103413.22;5044534;28;20029;-74
2023/01/25 02:16:47;;;;;;;57.33;24.77;;;;;;;-0.29;100.00;103409.53;5041638;28;20040;-74
2023/01/25 02:19:45;;;;;;;50.38;23.98;;;;;;;-0.31;100.00;103410.16;5040631;28;20029;-74
2023/01/25 02:22:15;;;;;;;54.95;25.55;;;;;;;-0.35;100.00;103406.34;5011050;28;20045;-73
2023/01/25 02:24:49;;;;;;;48.47;23.38;;;;;;;-0.35;100.00;103409.84;5036714;28;20025;-73
2023/01/25 02:27:16;;;;;;;50.90;23.65;;;;;;;-0.33;100.00;103406.50;5046990;28;20135;-74
2023/01/25 02:29:42;;;;;;;51.13;23.85;;;;;;;-0.34;100.00;103395.22;5041954;28;20087;-73
2023/01/25 02:32:08;;;;;;;48.53;23.05;;;;;;;-0.37;100.00;103403.63;5039676;28;20044;-73
2023/01/25 02:34:35;;;;;;;47.85;22.77;;;;;;;-0.41;100.00;103400.53;5045527;28;20025;-74
2023/01/25 02:37:00;;;;;;;58.05;24.27;;;;;;;-0.42;100.00;103388.34;5037146;28;20032;-74
2023/01/25 02:39:27;;;;;;;50.25;23.63;;;;;;;-0.45;100.00;103394.13;5040026;28;20499;-74
2023/01/25 02:41:53;;;;;;;46.80;22.48;;;;;;;-0.43;100.00;103383.97;5038725;28;20120;-74
2023/01/25 02:44:28;;;;;;;49.80;23.08;;;;;;;-0.41;100.00;103385.91;5035812;28;20139;-74
2023/01/25 02:46:53;;;;;;;56.83;24.95;;;;;;;-0.44;100.00;103374.38;5046418;28;20163;-75
2023/01/25 02:49:19;;;;;;;52.80;24.02;;;;;;;-0.46;100.00;103370.69;5041483;28;20129;-73
2023/01/25 02:51:50;;;;;;;51.80;24.48;;;;;;;-0.47;100.00;103369.78;5044173;28;20025;-74
2023/01/25 02:54:17;;;;;;;52.55;23.23;;;;;;;-0.47;100.00;103369.78;5038541;28;20041;-74
2023/01/25 02:56:43;;;;;;;57.88;25.15;;;;;;;-0.48;100.00;103365.38;5046324;28;20033;-74
2023/01/25 02:59:10;;;;;;;54.20;25.83;;;;;;;-0.48;100.00;103361.88;5037356;28;20035;-74
2023/01/25 03:01:37;;;;;;;50.17;23.38;;;;;;;-0.48;100.00;103369.63;5039244;28;20040;-73
2023/01/25 03:04:04;;;;;;;49.90;23.50;;;;;;;-0.49;100.00;103370.38;5045533;28;20599;-73
2023/01/25 03:06:29;;;;;;;51.28;24.17;;;;;;;-0.50;100.00;103364.31;5038574;28;20041;-74
2023/01/25 03:08:55;;;;;;;52.10;24.10;;;;;;;-0.51;100.00;103372.81;5039273;28;20074;-74
2023/01/25 03:11:20;;;;;;;52.25;24.30;;;;;;;-0.49;100.00;103363.53;5040382;28;20052;-74
2023/01/25 03:13:46;;;;;;;57.33;24.95;;;;;;;-0.49;100.00;103367.81;5040605;28;20562;-73
2023/01/25 03:16:12;;;;;;;50.85;23.95;;;;;;;-0.49;100.00;103360.94;5042994;28;20029;-73
2023/01/25 03:18:38;;;;;;;56.15;24.63;;;;;;;-0.54;100.00;103354.41;5039474;28;20115;-73
2023/01/25 03:21:09;;;;;;;49.85;23.85;;;;;;;-0.55;100.00;103350.88;5040600;28;20029;-74
2023/01/25 03:23:34;;;;;;;54.33;24.63;;;;;;;-0.53;100.00;103353.63;5047283;28;20031;-74
2023/01/25 03:26:26;;;;;;;50.30;24.45;;;;;;;-0.56;100.00;103346.47;5051635;28;20716;-73
2023/01/25 03:28:52;;;;;;;53.38;23.48;;;;;;;-0.58;100.00;103348.00;5049954;28;20128;-75
2023/01/25 03:31:18;;;;;;;51.00;23.83;;;;;;;-0.60;100.00;103346.00;5059638;28;20437;-73
2023/01/25 03:33:44;;;;;;;53.92;24.55;;;;;;;-0.60;100.00;103351.19;5063628;28;20036;-74
2023/01/25 03:36:09;;;;;;;48.78;22.92;;;;;;;-0.62;100.00;103352.72;5056521;28;20025;-75
2023/01/25 03:38:35;;;;;;;52.70;23.80;;;;;;;-0.65;100.00;103342.97;5053885;28;20024;-74
2023/01/25 03:41:02;;;;;;;49.40;21.63;;;;;;;-0.79;100.00;103341.53;5056784;28;20052;-74
2023/01/25 03:43:29;;;;;;;48.70;24.17;;;;;;;-0.73;100.00;103339.59;5057724;28;20021;-73
2023/01/25 03:45:58;;;;;;;57.55;25.52;;;;;;;-0.73;100.00;103337.00;5047526;28;20484;-74
2023/01/25 03:48:24;;;;;;;52.85;23.58;;;;;;;-0.76;100.00;103339.28;5060039;28;20032;-74
2023/01/25 03:50:57;;;;;;;49.67;23.48;;;;;;;-0.77;100.00;103334.84;5052058;28;20358;-74
2023/01/25 03:53:30;;;;;;;46.60;23.10;;;;;;;-0.89;100.00;103337.09;5052058;28;20033;-74
2023/01/25 03:56:00;;;;;;;53.92;24.15;;;;;;;-0.90;100.00;103337.84;5044641;28;20102;-74
2023/01/25 03:58:27;;;;;;;48.00;23.45;;;;;;;-0.91;100.00;103340.25;5045173;28;20033;-73
2023/01/25 04:00:57;;;;;;;50.40;22.48;;;;;;;-0.89;100.00;103333.59;5039692;28;20025;-74
2023/01/25 04:03:24;;;;;;;51.97;22.95;;;;;;;-0.88;100.00;103331.16;5049918;28;20057;-74
2023/01/25 04:05:49;;;;;;;54.50;24.10;;;;;;;-0.86;100.00;103326.16;5041192;28;20029;-73
2023/01/25 04:08:15;;;;;;;50.95;22.88;;;;;;;-0.85;100.00;103326.31;5043993;28;20120;-74
2023/01/25 04:10:41;;;;;;;53.33;23.70;;;;;;;-0.86;100.00;103323.56;5041870;28;20032;-73
2023/01/25 04:13:06;;;;;;;57.47;24.65;;;;;;;-0.88;100.00;103314.75;5040755;28;20504;-75
2023/01/25 04:15:31;;;;;;;52.63;24.58;;;;;;;-0.94;100.00;103321.88;5045445;28;20029;-73
2023/01/25 04:17:57;;;;;;;54.58;24.02;;;;;;;-0.91;100.00;103317.94;5042381;28;20120;-73
2023/01/25 04:20:22;;;;;;;53.45;24.20;;;;;;;-0.88;100.00;103317.34;5044465;28;20612;-74
2023/01/25 04:22:48;;;;;;;46.30;23.40;;;;;;;-0.84;100.00;103309.16;5044310;28;20017;-73
2023/01/25 04:25:13;;;;;;;59.80;25.88;;;;;;;-0.81;100.00;103313.69;5043156;28;20530;-73
2023/01/25 04:27:39;;;;;;;54.28;23.67;;;;;;;-0.89;100.00;103305.16;5046596;28;20463;-73
2023/01/25 04:30:05;;;;;;;55.35;25.25;;;;;;;-0.85;100.00;103309.91;5042853;28;20028;-73
2023/01/25 04:32:30;;;;;;;56.45;23.67;;;;;;;-0.85;100.00;103296.97;5044112;28;20021;-74
2023/01/25 04:34:56;;;;;;;52.88;24.40;;;;;;;-0.83;100.00;103305.78;5041760;28;20020;-74
2023/01/25 04:37:21;;;;;;;56.83;24.70;;;;;;;-0.77;100.00;103306.41;5045756;28;20108;-74
2023/01/25 04:39:47;;;;;;;54.20;23.88;;;;;;;-0.81;100.00;103299.13;5041758;28;20467;-72
2023/01/25 04:42:12;;;;;;;59.88;25.95;;;;;;;-0.80;100.00;103295.78;5045389;28;20623;-74
2023/01/25 04:44:37;;;;;;;53.70;24.90;;;;;;;-0.82;100.00;103297.28;5041699;28;20563;-73
2023/01/25 04:47:03;;;;;;;58.58;23.65;;;;;;;-0.80;100.00;103300.00;5044722;28;20059;-74
2023/01/25 04:49:28;;;;;;;55.95;26.20;;;;;;;-0.78;100.00;103293.34;5042179;28;20040;-73
2023/01/25 04:51:53;;;;;;;56.80;24.10;;;;;;;-0.79;100.00;103292.41;5047846;28;20048;-73
2023/01/25 04:54:19;;;;;;;52.80;23.08;;;;;;;-0.80;100.00;103282.84;5043787;28;20477;-74
2023/01/25 04:56:44;;;;;;;57.05;26.48;;;;;;;-0.79;100.00;103287.25;5042302;28;20053;-74
2023/01/25 04:59:10;;;;;;;57.42;25.48;;;;;;;-0.84;100.00;103283.28;5041397;28;20079;-74
2023/01/25 05:01:35;;;;;;;54.03;24.58;;;;;;;-0.85;100.00;103287.53;5040895;28;20048;-74
2023/01/25 05:04:00;;;;;;;48.10;21.33;;;;;;;-0.86;100.00;103280.53;5046097;28;20029;-73
2023/01/25 05:06:26;;;;;;;56.55;25.33;;;;;;;-0.87;100.00;103289.06;5045177;28;20074;-73
2023/01/25 05:08:51;;;;;;;52.97;23.65;;;;;;;-0.87;100.00;103288.13;5039713;28;20048;-73
2023/01/25 05:11:16;;;;;;;54.42;23.13;;;;;;;-0.90;100.00;103283.56;5028762;28;20197;-74
2023/01/25 05:13:42;;;;;;;63.33;25.45;;;;;;;-0.89;100.00;103287.06;5044146;28;20476;-73
2023/01/25 05:16:07;;;;;;;63.30;26.17;;;;;;;-0.90;100.00;103283.56;5044047;28;20030;-74
2023/01/25 05:18:32;;;;;;;57.13;25.98;;;;;;;-0.90;100.00;103287.81;5047535;28;20024;-74
2023/01/25 05:20:58;;;;;;;58.00;24.90;;;;;;;-0.89;100.00;103284.50;5046157;28;20032;-72
2023/01/25 05:23:23;;;;;;;56.97;25.58;;;;;;;-0.90;100.00;103282.66;5042974;28;20017;-74
2023/01/25 05:28:32;;;;;;;54.55;23.30;;;;;;;-0.94;100.00;103280.50;5048083;28;20118;-74
2023/01/25 05:30:58;;;;;;;54.20;23.15;;;;;;;-0.94;100.00;103288.28;5049265;28;20469;-74
2023/01/25 05:33:23;;;;;;;58.72;24.70;;;;;;;-0.97;100.00;103280.22;5047436;28;20225;-74
2023/01/25 05:35:48;;;;;;;57.80;25.70;;;;;;;-0.99;100.00;103276.53;5050912;28;20025;-74
2023/01/25 05:38:14;;;;;;;54.53;24.85;;;;;;;-0.98;100.00;103273.19;5041434;28;20048;-74
2023/01/25 05:40:39;;;;;;;63.47;24.92;;;;;;;-0.98;100.00;103268.94;5042682;28;20052;-74
2023/01/25 05:43:04;;;;;;;60.35;25.23;;;;;;;-1.01;100.00;103263.47;5043138;28;20053;-73
2023/01/25 05:45:30;;;;;;;52.97;24.17;;;;;;;-1.00;100.00;103261.78;5044046;28;20095;-73
2023/01/25 05:47:56;;;;;;;59.78;25.58;;;;;;;-1.01;100.00;103268.63;5046580;28;20057;-74
2023/01/25 05:50:23;;;;;;;58.40;24.65;;;;;;;-1.03;100.00;103271.06;5040924;28;20029;-74
2023/01/25 05:52:49;;;;;;;56.10;23.65;;;;;;;-1.17;100.00;103276.47;5041158;28;20060;-74
2023/01/25 05:55:14;;;;;;;55.17;23.85;;;;;;;-1.15;100.00;103274.03;5046988;28;20422;-74
2023/01/25 05:57:40;;;;;;;63.53;25.48;;;;;;;-1.18;100.00;103279.84;5045969;28;20037;-74
2023/01/25 06:00:06;;;;;;;60.95;24.70;;;;;;;-1.15;100.00;103282.72;5042514;28;21510;-74
2023/01/25 06:02:31;;;;;;;58.80;24.98;;;;;;;-1.17;100.00;103289.38;5039171;28;20025;-74
2023/01/25 06:04:57;;;;;;;58.30;25.05;;;;;;;-1.15;100.00;103285.31;5043366;28;20099;-73
2023/01/25 06:07:23;;;;;;;55.90;25.50;;;;;;;-1.17;100.00;103288.47;5044844;28;20111;-74
2023/01/25 06:09:48;;;;;;;57.33;24.85;;;;;;;-1.16;100.00;103288.63;5053884;28;20094;-74
2023/01/25 06:12:14;;;;;;;52.35;23.63;;;;;;;-1.22;100.00;103288.91;5039337;28;20021;-74
2023/01/25 06:14:40;;;;;;;58.95;24.92;;;;;;;-1.25;100.00;103292.84;5038415;28;20420;-74
2023/01/25 06:17:05;;;;;;;58.65;24.20;;;;;;;-1.27;100.00;103294.38;5042549;28;20025;-73
2023/01/25 06:19:31;;;;;;;61.75;24.52;;;;;;;-1.23;100.00;103281.00;5051534;28;20071;-73
2023/01/25 06:21:56;;;;;;;55.63;23.52;;;;;;;-1.22;100.00;103282.81;5043164;28;20110;-73
2023/01/25 06:24:21;;;;;;;58.22;23.67;;;;;;;-1.21;100.00;103279.50;5047163;28;20036;-73
2023/01/25 06:26:47;;;;;;;63.97;26.13;;;;;;;-1.20;100.00;103279.63;5039421;28;20028;-73
2023/01/25 06:29:12;;;;;;;62.55;25.05;;;;;;;-1.21;100.00;103276.91;5039232;28;20068;-73
2023/01/25 06:31:37;;;;;;;61.15;24.58;;;;;;;-1.21;100.00;103279.50;5043930;28;20067;-74
2023/01/25 06:34:05;;;;;;;58.50;24.17;;;;;;;-1.22;100.00;103275.06;5039340;28;20025;-74
2023/01/25 06:36:30;;;;;;;57.75;24.48;;;;;;;-1.28;100.00;103282.19;5043968;28;20032;-74
2023/01/25 06:38:56;;;;;;;56.67;24.25;;;;;;;-1.30;100.00;103283.69;5037191;28;20032;-75
2023/01/25 06:41:22;;;;;;;59.95;26.10;;;;;;;-1.29;100.00;103280.38;5043897;28;20458;-73
2023/01/25 06:43:49;;;;;;;57.47;22.85;;;;;;;-1.27;100.00;103281.47;5045473;28;20032;-73
2023/01/25 06:46:15;;;;;;;63.28;23.88;;;;;;;-1.37;100.00;103274.38;5049305;28;20045;-73
2023/01/25 06:48:41;;;;;;;59.08;25.60;;;;;;;-1.35;100.00;103265.16;5051491;28;20024;-75
2023/01/25 06:51:09;;;;;;;63.80;24.95;;;;;;;-1.31;100.00;103274.13;5050651;28;20028;-74
2023/01/25 06:53:38;;;;;;;61.10;25.15;;;;;;;-1.29;100.00;103273.56;5062182;28;20090;-74
2023/01/25 06:56:08;;;;;;;72.07;27.70;;;;;;;-1.32;100.00;103272.31;5053156;28;20510;-74
2023/01/25 06:58:35;;;;;;;73.40;27.60;;;;;;;-1.30;100.00;103281.09;5049850;28;20028;-74
2023/01/25 07:01:03;;;;;;;65.10;26.45;;;;;;;-1.27;100.00;103268.53;5053480;28;20480;-75
2023/01/25 07:03:29;;;;;;;70.60;28.55;;;;;;;-1.28;100.00;103266.69;5053006;28;20470;-74
2023/01/25 07:06:12;;;;;;;69.25;28.27;;;;;;;-1.28;100.00;103262.44;5053057;28;20025;-74
2023/01/25 07:08:38;;;;;;;70.37;27.57;;;;;;;-1.30;100.00;103258.81;5044399;28;20031;-74
2023/01/25 07:11:06;;;;;;;69.35;28.25;;;;;;;-1.22;100.00;103264.75;5048149;28;20287;-74
2023/01/25 07:13:33;;;;;;;65.75;28.25;;;;;;;-1.23;100.00;103266.41;5062910;28;20025;-74
2023/01/25 07:16:00;;;;;;;68.85;26.40;;;;;;;-1.32;100.00;103270.63;5052004;28;20056;-74
2023/01/25 07:18:28;;;;;;;71.22;29.33;;;;;;;-1.36;100.00;103268.47;5048774;28;20099;-74
2023/01/25 07:20:54;;;;;;;65.80;25.60;;;;;;;-1.31;100.00;103266.41;5047196;28;20381;-74
2023/01/25 07:23:19;;;;;;;74.60;29.25;;;;;;;-1.31;100.00;103268.97;5048394;28;20024;-75
2023/01/25 07:25:49;;;;;;;73.55;28.83;;;;;;;-1.32;100.00;103268.03;5044518;28;20125;-74
2023/01/25 07:28:16;;;;;;;73.35;26.48;;;;;;;-1.28;100.00;103264.13;5050217;28;20044;-74
2023/01/25 07:30:42;;;;;;;70.47;28.40;;;;;;;-1.26;100.00;103260.00;5050225;28;20075;-76
2023/01/25 07:33:10;;;;;;;70.90;28.88;;;;;;;-1.24;100.00;103254.25;5048499;28;20083;-76
2023/01/25 07:35:36;;;;;;;75.10;29.52;;;;;;;-1.23;100.00;103252.59;5045828;28;20021;-75
2023/01/25 07:38:03;;;;;;;72.57;27.92;;;;;;;-1.19;100.00;103249.56;5053117;28;20037;-75
2023/01/25 07:40:28;;;;;;;72.80;30.92;;;;;;;-1.21;100.00;103246.84;5049787;28;20024;-74
2023/01/25 07:42:53;;;;;;;68.90;29.38;;;;;;;-1.19;100.00;103247.00;5047369;28;20029;-75
2023/01/25 07:45:19;;;;;;;75.00;29.33;;;;;;;-1.16;100.00;103247.31;5038535;28;20033;-74
2023/01/25 07:47:45;;;;;;;74.03;29.48;;;;;;;-1.17;100.00;103240.28;5054143;28;20040;-75
2023/01/25 07:50:11;;;;;;;66.70;28.80;;;;;;;-1.11;100.00;103240.00;5048712;28;20025;-73
2023/01/25 07:52:36;;;;;;;80.07;30.00;;;;;;;-1.08;100.00;103232.59;5043001;28;20159;-75
2023/01/25 07:55:03;;;;;;;66.80;29.10;;;;;;;-1.10;100.00;103232.44;5051812;28;20451;-74
2023/01/25 07:57:28;;;;;;;77.07;30.45;;;;;;;-1.08;100.00;103230.00;5055331;28;20025;-74
2023/01/25 07:59:54;;;;;;;73.07;31.13;;;;;;;-1.10;100.00;103224.69;5057654;28;20388;-75
2023/01/25 08:02:19;;;;;;;71.78;28.67;;;;;;;-1.11;100.00;103228.03;5050168;28;20029;-73
2023/01/25 08:04:45;;;;;;;74.68;30.50;;;;;;;-1.11;100.00;103225.44;5049673;28;20060;-74
2023/01/25 08:07:12;;;;;;;75.10;30.55;;;;;;;-1.09;100.00;103229.06;5051267;28;20107;-75
2023/01/25 08:09:38;;;;;;;74.82;32.20;;;;;;;-1.08;100.00;103233.50;5041611;28;20382;-74
2023/01/25 08:12:05;;;;;;;81.32;29.88;;;;;;;-1.15;100.00;103223.31;5050193;28;20029;-75
2023/01/25 08:14:30;;;;;;;74.47;30.83;;;;;;;-1.11;100.00;103225.44;5049338;28;20025;-75
2023/01/25 08:16:55;;;;;;;68.90;28.40;;;;;;;-1.10;100.00;103224.69;5054978;28;20028;-74
2023/01/25 08:19:21;;;;;;;76.78;30.30;;;;;;;-1.09;100.00;103231.66;5041423;28;21426;-74
2023/01/25 08:21:46;;;;;;;74.03;29.23;;;;;;;-1.05;100.00;103223.47;5053303;28;20044;-75
2023/01/25 08:24:12;;;;;;;74.88;30.90;;;;;;;-1.05;100.00;103215.72;5054738;28;20066;-74
2023/01/25 08:26:37;;;;;;;82.60;34.10;;;;;;;-1.04;100.00;103217.53;5053946;28;20020;-75
2023/01/25 08:29:04;;;;;;;82.70;31.83;;;;;;;-1.04;100.00;103226.97;5048793;28;20021;-74
2023/01/25 08:31:32;;;;;;;76.72;29.67;;;;;;;-1.03;100.00;103218.47;5054355;28;20072;-75
2023/01/25 08:33:58;;;;;;;84.00;32.60;;;;;;;-1.03;100.00;103213.31;5047973;28;20029;-74
2023/01/25 08:36:26;;;;;;;84.05;32.17;;;;;;;-1.06;100.00;103219.06;5043461;28;20025;-74
2023/01/25 08:38:54;;;;;;;67.78;29.42;;;;;;;-1.02;100.00;103210.88;5039943;28;20059;-75
2023/01/25 08:41:20;;;;;;;72.85;28.25;;;;;;;-1.02;100.00;103205.72;5044344;28;20473;-75
2023/01/25 08:43:46;;;;;;;72.90;30.10;;;;;;;-1.04;100.00;103202.03;5054096;28;20091;-75
2023/01/25 08:46:13;;;;;;;71.28;29.70;;;;;;;-1.00;100.00;103210.09;5052199;28;20544;-75
2023/01/25 08:48:39;;;;;;;82.72;33.33;;;;;;;-1.00;100.00;103203.28;5050700;28;20025;-77
2023/01/25 08:51:08;;;;;;;79.32;31.98;;;;;;;-0.98;100.00;103200.84;5053642;28;20082;-75
2023/01/25 08:53:33;;;;;;;75.32;29.83;;;;;;;-0.96;100.00;103204.47;5048921;28;20037;-75
2023/01/25 08:56:07;;;;;;;71.97;30.48;;;;;;;-0.94;100.00;103200.41;5061635;28;20036;-74
2023/01/25 08:58:35;;;;;;;80.53;29.45;;;;;;;-0.90;100.00;103205.13;5049835;28;20467;-75
2023/01/25 09:01:05;;;;;;;79.30;30.75;;;;;;;-0.92;100.00;103204.06;5053425;28;20039;-74
2023/01/25 09:03:33;;;;;;;80.70;32.17;;;;;;;-0.89;100.00;103212.13;5046586;28;20096;-74
2023/01/25 09:05:58;;;;;;;77.60;31.35;;;;;;;-0.85;100.00;103207.41;5043486;28;20029;-76
2023/01/25 09:08:24;;;;;;;77.72;32.55;;;;;;;-0.84;100.00;103205.75;5046484;28;20074;-75
2023/01/25 09:10:49;;;;;;;75.60;31.98;;;;;;;-0.77;100.00;103203.00;5043922;28;20115;-75
2023/01/25 09:13:15;;;;;;;82.93;31.45;;;;;;;-0.81;100.00;103199.94;5052210;28;20100;-75
2023/01/25 09:15:40;;;;;;;79.63;29.65;;;;;;;-0.77;100.00;103197.84;5053510;28;20024;-75
2023/01/25 09:18:05;;;;;;;75.78;31.23;;;;;;;-0.81;100.00;103193.13;5046126;28;20032;-75
2023/01/25 09:20:31;;;;;;;68.85;28.33;;;;;;;-0.80;100.00;103196.63;5048959;28;20052;-75
2023/01/25 09:22:56;;;;;;;73.13;28.95;;;;;;;-0.75;100.00;103190.25;5051532;28;20099;-75
2023/01/25 09:25:21;;;;;;;83.13;30.90;;;;;;;-0.77;100.00;103187.50;5053024;28;20021;-75
2023/01/25 09:27:50;;;;;;;79.85;30.63;;;;;;;-0.80;100.00;103181.09;5051491;28;20031;-75
2023/01/25 09:30:17;;;;;;;78.93;32.70;;;;;;;-0.88;100.00;103186.44;5051445;28;20024;-75
2023/01/25 09:32:43;;;;;;;74.60;30.25;;;;;;;-0.93;100.00;103189.31;5050510;28;20029;-75
2023/01/25 09:35:09;;;;;;;76.38;30.63;;;;;;;-0.86;100.00;103184.00;5052501;28;20456;-75
2023/01/25 09:37:34;;;;;;;82.78;32.00;;;;;;;-0.88;100.00;103177.78;5052279;28;20070;-74
2023/01/25 09:40:00;;;;;;;76.80;29.50;;;;;;;-0.96;100.00;103173.47;5052917;28;20040;-75
2023/01/25 09:42:43;;;;;;;76.97;28.95;;;;;;;-0.94;100.00;103169.38;5053703;28;20032;-73
2023/01/25 09:45:35;;;;;;;74.63;30.40;;;;;;;-0.88;100.00;103175.19;5050737;28;20025;-74
2023/01/25 09:48:03;;;;;;;69.85;27.98;;;;;;;-0.87;100.00;103166.66;5040299;28;20028;-75
2023/01/25 09:50:36;;;;;;;70.30;29.08;;;;;;;-0.95;100.00;103154.63;5051778;28;20041;-76
2023/01/25 09:53:23;;;;;;;79.03;30.48;;;;;;;-0.86;100.00;103160.72;5059326;28;20025;-75
2023/01/25 09:56:01;;;;;;;67.15;28.42;;;;;;;-0.99;100.00;103168.00;5053379;28;20114;-75
2023/01/25 09:58:31;;;;;;;68.80;29.83;;;;;;;-0.87;100.00;103156.31;5052243;28;20418;-75
2023/01/25 10:01:33;;;;;;;73.38;30.75;;;;;;;-0.85;100.00;103152.22;5051171;28;20025;-76
2023/01/25 10:04:13;;;;;;;73.85;30.17;;;;;;;-0.92;100.00;103142.03;5045980;28;20374;-75
2023/01/25 10:06:41;;;;;;;74.18;29.40;;;;;;;-0.89;100.00;103134.59;5051769;28;20029;-75
2023/01/25 10:09:22;;;;;;;80.28;35.95;;;;;;;-0.88;100.00;103142.50;5053149;28;20683;-75
2023/01/25 10:11:47;;;;;;;80.70;29.95;;;;;;;-0.88;100.00;103126.97;5037985;28;20449;-75
2023/01/25 10:14:17;;;;;;;76.55;31.17;;;;;;;-0.92;100.00;103121.38;5053007;28;20064;-74
2023/01/25 10:16:49;;;;;;;87.00;32.17;;;;;;;-0.86;100.00;103124.53;5051189;28;20370;-74
2023/01/25 10:19:25;;;;;;;83.18;33.35;;;;;;;-0.89;100.00;103121.66;5052788;28;20094;-74
2023/01/25 10:22:04;;;;;;;78.10;31.20;;;;;;;-0.86;100.00;103119.38;5059288;28;20039;-76
2023/01/25 10:25:02;;;;;;;82.72;30.70;;;;;;;-0.83;100.00;103122.25;5049147;28;20104;-76
2023/01/25 10:27:55;;;;;;;64.05;26.02;;;;;;;-0.90;100.00;103120.72;5044192;28;21437;-77
2023/01/25 10:30:30;;;;;;;64.38;27.23;;;;;;;-0.85;100.00;103116.03;5046702;28;20064;-77
2023/01/25 10:33:18;;;;;;;76.55;31.73;;;;;;;-0.86;100.00;103104.75;5048113;28;20509;-76
2023/01/25 10:35:45;;;;;;;73.20;31.45;;;;;;;-0.78;100.00;103108.13;5053167;28;20020;-76
2023/01/25 10:38:18;;;;;;;83.10;30.85;;;;;;;-0.71;100.00;103110.53;5052070;28;20123;-76
2023/01/25 10:40:52;;;;;;;74.85;29.73;;;;;;;-0.71;100.00;103105.38;5048780;28;20362;-76
2023/01/25 10:43:20;;;;;;;78.30;30.52;;;;;;;-0.71;100.00;103102.78;5051560;28;20055;-76
2023/01/25 10:45:46;;;;;;;66.10;28.67;;;;;;;-0.69;100.00;103103.88;5052600;28;20115;-77
2023/01/25 10:48:32;;;;;;;77.15;29.90;;;;;;;-0.61;100.00;103095.94;5049802;28;20025;-76
2023/01/25 10:50:58;;;;;;;68.47;27.50;;;;;;;-0.69;100.00;103093.53;5049607;28;20090;-76
2023/01/25 10:53:32;;;;;;;73.40;31.17;;;;;;;-0.69;100.00;103082.28;5066499;28;20029;-75
2023/01/25 10:56:20;;;;;;;66.15;26.58;;;;;;;-0.62;100.00;103079.53;5050090;28;20030;-76
2023/01/25 10:58:48;;;;;;;66.82;27.83;;;;;;;-0.63;100.00;103066.44;5049369;28;20453;-76
2023/01/25 11:01:32;;;;;;;69.95;29.17;;;;;;;-0.65;100.00;103061.13;5046984;28;20361;-77
2023/01/25 11:03:58;;;;;;;75.38;27.92;;;;;;;-0.70;100.00;103057.19;5066045;28;20163;-76
2023/01/25 11:06:31;;;;;;;71.65;28.27;;;;;;;-0.70;100.00;103055.50;5053235;28;20017;-76
2023/01/25 11:08:56;;;;;;;69.65;27.15;;;;;;;-0.86;100.00;103050.47;5058606;28;20460;-77
2023/01/25 11:11:25;;;;;;;68.10;27.67;;;;;;;-0.74;100.00;103055.06;5059967;28;20108;-76